sensor_id;sensor_type;location;lat;lon;timestamp;P1;durP1;ratioP1;P2;durP2;ratioP2
67751;SDS011;54551;51.068;5.826;2023-01-29T00:00:07;45.30;;;30.60;;
67751;SDS011;54551;51.068;5.826;2023-01-29T00:02:40;45.37;;;30.47;;
67751;SDS011;54551;51.068;5.826;2023-01-29T00:05:06;43.37;;;30.30;;
67751;SDS011;54551;51.068;5.826;2023-01-29T00:07:33;46.13;;;31.07;;
67751;SDS011;54551;51.068;5.826;2023-01-29T00:09:58;49.23;;;32.70;;
67751;SDS011;54551;51.068;5.826;2023-01-29T00:12:24;44.00;;;31.27;;
67751;SDS011;54551;51.068;5.826;2023-01-29T00:14:50;45.40;;;32.10;;
67751;SDS011;54551;51.068;5.826;2023-01-29T00:17:16;44.93;;;30.97;;
67751;SDS011;54551;51.068;5.826;2023-01-29T00:19:42;45.60;;;31.03;;
67751;SDS011;54551;51.068;5.826;2023-01-29T00:22:08;46.40;;;30.90;;
67751;SDS011;54551;51.068;5.826;2023-01-29T00:24:34;47.27;;;32.17;;
67751;SDS011;54551;51.068;5.826;2023-01-29T00:27:00;45.23;;;31.83;;
67751;SDS011;54551;51.068;5.826;2023-01-29T00:29:26;45.43;;;30.70;;
67751;SDS011;54551;51.068;5.826;2023-01-29T00:31:52;46.53;;;32.57;;
67751;SDS011;54551;51.068;5.826;2023-01-29T00:34:18;49.70;;;32.13;;
67751;SDS011;54551;51.068;5.826;2023-01-29T00:36:44;47.83;;;32.97;;
67751;SDS011;54551;51.068;5.826;2023-01-29T00:39:11;51.57;;;33.93;;
67751;SDS011;54551;51.068;5.826;2023-01-29T00:41:37;49.33;;;31.70;;
67751;SDS011;54551;51.068;5.826;2023-01-29T00:44:21;48.07;;;32.17;;
67751;SDS011;54551;51.068;5.826;2023-01-29T00:47:06;48.50;;;32.23;;
67751;SDS011;54551;51.068;5.826;2023-01-29T00:49:50;47.20;;;32.23;;
67751;SDS011;54551;51.068;5.826;2023-01-29T00:52:16;47.80;;;32.83;;
67751;SDS011;54551;51.068;5.826;2023-01-29T00:54:48;49.57;;;32.47;;
67751;SDS011;54551;51.068;5.826;2023-01-29T00:57:14;47.30;;;31.87;;
67751;SDS011;54551;51.068;5.826;2023-01-29T00:59:40;52.57;;;33.90;;
67751;SDS011;54551;51.068;5.826;2023-01-29T01:02:06;48.87;;;32.10;;
67751;SDS011;54551;51.068;5.826;2023-01-29T01:04:50;49.77;;;32.50;;
67751;SDS011;54551;51.068;5.826;2023-01-29T01:07:16;51.03;;;32.07;;
67751;SDS011;54551;51.068;5.826;2023-01-29T01:09:42;50.10;;;32.87;;
67751;SDS011;54551;51.068;5.826;2023-01-29T01:12:26;50.07;;;32.10;;
67751;SDS011;54551;51.068;5.826;2023-01-29T01:14:53;47.07;;;32.30;;
67751;SDS011;54551;51.068;5.826;2023-01-29T01:17:19;47.80;;;31.80;;
67751;SDS011;54551;51.068;5.826;2023-01-29T01:19:44;53.13;;;35.00;;
67751;SDS011;54551;51.068;5.826;2023-01-29T01:22:10;48.33;;;32.30;;
67751;SDS011;54551;51.068;5.826;2023-01-29T01:24:37;48.60;;;32.67;;
67751;SDS011;54551;51.068;5.826;2023-01-29T01:27:03;52.33;;;32.07;;
67751;SDS011;54551;51.068;5.826;2023-01-29T01:29:30;53.30;;;33.83;;
67751;SDS011;54551;51.068;5.826;2023-01-29T01:31:56;51.07;;;32.93;;
67751;SDS011;54551;51.068;5.826;2023-01-29T01:34:22;51.90;;;33.40;;
67751;SDS011;54551;51.068;5.826;2023-01-29T01:36:48;56.07;;;35.77;;
67751;SDS011;54551;51.068;5.826;2023-01-29T01:39:14;52.60;;;32.77;;
67751;SDS011;54551;51.068;5.826;2023-01-29T01:41:40;52.30;;;33.17;;
67751;SDS011;54551;51.068;5.826;2023-01-29T01:44:06;47.70;;;31.90;;
67751;SDS011;54551;51.068;5.826;2023-01-29T01:46:36;56.33;;;33.77;;
67751;SDS011;54551;51.068;5.826;2023-01-29T01:49:04;49.80;;;31.20;;
67751;SDS011;54551;51.068;5.826;2023-01-29T01:51:38;55.67;;;34.67;;
67751;SDS011;54551;51.068;5.826;2023-01-29T01:54:17;50.53;;;32.43;;
67751;SDS011;54551;51.068;5.826;2023-01-29T01:56:52;56.70;;;34.33;;
67751;SDS011;54551;51.068;5.826;2023-01-29T01:59:45;52.97;;;33.47;;
67751;SDS011;54551;51.068;5.826;2023-01-29T02:02:23;52.10;;;32.97;;
67751;SDS011;54551;51.068;5.826;2023-01-29T02:05:08;51.83;;;33.50;;
67751;SDS011;54551;51.068;5.826;2023-01-29T02:07:55;57.10;;;34.77;;
67751;SDS011;54551;51.068;5.826;2023-01-29T02:10:41;52.20;;;33.90;;
67751;SDS011;54551;51.068;5.826;2023-01-29T02:13:09;53.93;;;33.83;;
67751;SDS011;54551;51.068;5.826;2023-01-29T02:15:35;54.70;;;34.63;;
67751;SDS011;54551;51.068;5.826;2023-01-29T02:18:01;54.23;;;34.73;;
67751;SDS011;54551;51.068;5.826;2023-01-29T02:20:28;54.03;;;34.50;;
67751;SDS011;54551;51.068;5.826;2023-01-29T02:30:45;55.67;;;35.07;;
67751;SDS011;54551;51.068;5.826;2023-01-29T02:41:24;55.97;;;35.37;;
67751;SDS011;54551;51.068;5.826;2023-01-29T02:47:00;54.90;;;34.87;;
67751;SDS011;54551;51.068;5.826;2023-01-29T02:49:35;60.50;;;36.30;;
67751;SDS011;54551;51.068;5.826;2023-01-29T02:55:49;59.53;;;36.43;;
67751;SDS011;54551;51.068;5.826;2023-01-29T02:58:32;60.07;;;36.23;;
67751;SDS011;54551;51.068;5.826;2023-01-29T03:01:08;60.07;;;35.57;;
67751;SDS011;54551;51.068;5.826;2023-01-29T03:03:57;59.33;;;37.50;;
67751;SDS011;54551;51.068;5.826;2023-01-29T03:09:00;62.60;;;37.13;;
67751;SDS011;54551;51.068;5.826;2023-01-29T03:11:35;57.53;;;36.17;;
67751;SDS011;54551;51.068;5.826;2023-01-29T03:14:14;57.03;;;36.20;;
67751;SDS011;54551;51.068;5.826;2023-01-29T03:16:44;64.07;;;37.83;;
67751;SDS011;54551;51.068;5.826;2023-01-29T03:21:55;61.10;;;37.70;;
67751;SDS011;54551;51.068;5.826;2023-01-29T03:24:40;60.23;;;36.40;;
67751;SDS011;54551;51.068;5.826;2023-01-29T03:27:48;59.60;;;36.33;;
67751;SDS011;54551;51.068;5.826;2023-01-29T03:30:49;58.07;;;36.30;;
67751;SDS011;54551;51.068;5.826;2023-01-29T03:36:56;60.37;;;37.53;;
67751;SDS011;54551;51.068;5.826;2023-01-29T03:39:26;57.23;;;35.87;;
67751;SDS011;54551;51.068;5.826;2023-01-29T03:42:04;62.60;;;37.43;;
67751;SDS011;54551;51.068;5.826;2023-01-29T03:53:29;64.53;;;39.17;;
67751;SDS011;54551;51.068;5.826;2023-01-29T04:02:10;65.87;;;40.30;;
67751;SDS011;54551;51.068;5.826;2023-01-29T04:04:40;64.33;;;37.70;;
67751;SDS011;54551;51.068;5.826;2023-01-29T04:07:11;64.77;;;38.33;;
67751;SDS011;54551;51.068;5.826;2023-01-29T04:09:42;65.60;;;40.57;;
67751;SDS011;54551;51.068;5.826;2023-01-29T04:12:14;70.37;;;41.83;;
67751;SDS011;54551;51.068;5.826;2023-01-29T04:14:44;65.17;;;38.63;;
67751;SDS011;54551;51.068;5.826;2023-01-29T04:17:23;64.53;;;39.50;;
67751;SDS011;54551;51.068;5.826;2023-01-29T04:20:08;64.17;;;38.77;;
67751;SDS011;54551;51.068;5.826;2023-01-29T04:22:35;62.83;;;39.43;;
67751;SDS011;54551;51.068;5.826;2023-01-29T04:25:04;65.40;;;38.37;;
67751;SDS011;54551;51.068;5.826;2023-01-29T04:36:12;65.17;;;39.37;;
67751;SDS011;54551;51.068;5.826;2023-01-29T04:39:09;68.50;;;41.07;;
67751;SDS011;54551;51.068;5.826;2023-01-29T04:44:30;64.67;;;39.77;;
67751;SDS011;54551;51.068;5.826;2023-01-29T04:47:08;71.03;;;43.80;;
67751;SDS011;54551;51.068;5.826;2023-01-29T04:52:37;66.67;;;40.73;;
67751;SDS011;54551;51.068;5.826;2023-01-29T04:55:16;68.43;;;42.03;;
67751;SDS011;54551;51.068;5.826;2023-01-29T04:57:52;69.07;;;42.20;;
67751;SDS011;54551;51.068;5.826;2023-01-29T05:00:35;66.43;;;40.90;;
67751;SDS011;54551;51.068;5.826;2023-01-29T05:03:05;63.00;;;39.60;;
67751;SDS011;54551;51.068;5.826;2023-01-29T05:05:33;67.80;;;41.43;;
67751;SDS011;54551;51.068;5.826;2023-01-29T05:08:00;64.23;;;41.10;;
67751;SDS011;54551;51.068;5.826;2023-01-29T05:10:28;59.80;;;38.53;;
67751;SDS011;54551;51.068;5.826;2023-01-29T05:12:58;66.47;;;39.67;;
67751;SDS011;54551;51.068;5.826;2023-01-29T05:15:28;63.00;;;39.53;;
67751;SDS011;54551;51.068;5.826;2023-01-29T05:17:59;63.63;;;39.83;;
67751;SDS011;54551;51.068;5.826;2023-01-29T05:20:29;70.47;;;41.67;;
67751;SDS011;54551;51.068;5.826;2023-01-29T05:22:57;64.77;;;39.67;;
67751;SDS011;54551;51.068;5.826;2023-01-29T05:25:24;64.07;;;39.40;;
67751;SDS011;54551;51.068;5.826;2023-01-29T05:27:52;63.50;;;40.20;;
67751;SDS011;54551;51.068;5.826;2023-01-29T05:30:41;61.20;;;37.90;;
67751;SDS011;54551;51.068;5.826;2023-01-29T05:35:39;63.00;;;39.63;;
67751;SDS011;54551;51.068;5.826;2023-01-29T05:38:05;64.43;;;41.73;;
67751;SDS011;54551;51.068;5.826;2023-01-29T05:40:32;65.33;;;41.67;;
67751;SDS011;54551;51.068;5.826;2023-01-29T05:42:58;67.10;;;39.23;;
67751;SDS011;54551;51.068;5.826;2023-01-29T05:45:23;65.40;;;40.10;;
67751;SDS011;54551;51.068;5.826;2023-01-29T05:47:49;70.87;;;40.53;;
67751;SDS011;54551;51.068;5.826;2023-01-29T05:50:15;68.37;;;41.17;;
67751;SDS011;54551;51.068;5.826;2023-01-29T05:52:41;69.70;;;41.53;;
67751;SDS011;54551;51.068;5.826;2023-01-29T05:55:07;73.10;;;42.63;;
67751;SDS011;54551;51.068;5.826;2023-01-29T05:57:34;63.27;;;39.10;;
67751;SDS011;54551;51.068;5.826;2023-01-29T06:00:00;68.03;;;40.50;;
67751;SDS011;54551;51.068;5.826;2023-01-29T06:02:30;67.83;;;41.27;;
67751;SDS011;54551;51.068;5.826;2023-01-29T06:04:56;68.93;;;42.63;;
67751;SDS011;54551;51.068;5.826;2023-01-29T06:07:22;67.17;;;41.80;;
67751;SDS011;54551;51.068;5.826;2023-01-29T06:09:48;72.17;;;43.53;;
67751;SDS011;54551;51.068;5.826;2023-01-29T06:12:13;70.73;;;42.47;;
67751;SDS011;54551;51.068;5.826;2023-01-29T06:14:39;68.03;;;41.27;;
67751;SDS011;54551;51.068;5.826;2023-01-29T06:17:05;68.70;;;42.13;;
67751;SDS011;54551;51.068;5.826;2023-01-29T06:19:31;68.83;;;40.70;;
67751;SDS011;54551;51.068;5.826;2023-01-29T06:21:57;71.10;;;43.53;;
67751;SDS011;54551;51.068;5.826;2023-01-29T06:24:23;67.07;;;41.87;;
67751;SDS011;54551;51.068;5.826;2023-01-29T06:26:48;68.70;;;40.23;;
67751;SDS011;54551;51.068;5.826;2023-01-29T06:29:14;78.77;;;41.97;;
67751;SDS011;54551;51.068;5.826;2023-01-29T06:31:40;65.47;;;39.10;;
67751;SDS011;54551;51.068;5.826;2023-01-29T06:34:07;71.13;;;43.07;;
67751;SDS011;54551;51.068;5.826;2023-01-29T06:36:33;70.17;;;41.40;;
67751;SDS011;54551;51.068;5.826;2023-01-29T06:38:58;71.40;;;42.03;;
67751;SDS011;54551;51.068;5.826;2023-01-29T06:41:25;74.87;;;44.40;;
67751;SDS011;54551;51.068;5.826;2023-01-29T06:43:51;69.40;;;42.27;;
67751;SDS011;54551;51.068;5.826;2023-01-29T06:46:17;71.93;;;42.63;;
67751;SDS011;54551;51.068;5.826;2023-01-29T06:48:42;67.50;;;42.50;;
67751;SDS011;54551;51.068;5.826;2023-01-29T06:51:09;70.47;;;41.07;;
67751;SDS011;54551;51.068;5.826;2023-01-29T06:53:35;72.27;;;42.77;;
67751;SDS011;54551;51.068;5.826;2023-01-29T06:56:02;74.17;;;44.83;;
67751;SDS011;54551;51.068;5.826;2023-01-29T06:58:29;71.90;;;42.70;;
67751;SDS011;54551;51.068;5.826;2023-01-29T07:01:08;70.80;;;41.57;;
67751;SDS011;54551;51.068;5.826;2023-01-29T07:03:35;67.50;;;40.27;;
67751;SDS011;54551;51.068;5.826;2023-01-29T07:06:01;68.60;;;42.87;;
67751;SDS011;54551;51.068;5.826;2023-01-29T07:08:27;69.70;;;42.83;;
67751;SDS011;54551;51.068;5.826;2023-01-29T07:10:59;66.70;;;42.23;;
67751;SDS011;54551;51.068;5.826;2023-01-29T07:13:27;69.83;;;43.33;;
67751;SDS011;54551;51.068;5.826;2023-01-29T07:15:53;70.57;;;44.27;;
67751;SDS011;54551;51.068;5.826;2023-01-29T07:18:22;69.83;;;43.00;;
67751;SDS011;54551;51.068;5.826;2023-01-29T07:20:48;70.07;;;42.57;;
67751;SDS011;54551;51.068;5.826;2023-01-29T07:23:13;73.40;;;43.43;;
67751;SDS011;54551;51.068;5.826;2023-01-29T07:25:40;72.20;;;41.00;;
67751;SDS011;54551;51.068;5.826;2023-01-29T07:28:06;68.40;;;42.47;;
67751;SDS011;54551;51.068;5.826;2023-01-29T07:30:32;66.27;;;42.20;;
67751;SDS011;54551;51.068;5.826;2023-01-29T07:33:02;68.13;;;41.87;;
67751;SDS011;54551;51.068;5.826;2023-01-29T07:35:36;69.63;;;42.13;;
67751;SDS011;54551;51.068;5.826;2023-01-29T07:38:07;73.30;;;44.70;;
67751;SDS011;54551;51.068;5.826;2023-01-29T07:40:34;68.37;;;41.13;;
67751;SDS011;54551;51.068;5.826;2023-01-29T07:43:01;73.50;;;43.33;;
67751;SDS011;54551;51.068;5.826;2023-01-29T07:45:29;70.43;;;43.30;;
67751;SDS011;54551;51.068;5.826;2023-01-29T07:47:57;68.83;;;41.93;;
67751;SDS011;54551;51.068;5.826;2023-01-29T07:50:24;66.53;;;41.47;;
67751;SDS011;54551;51.068;5.826;2023-01-29T07:52:52;70.13;;;42.13;;
67751;SDS011;54551;51.068;5.826;2023-01-29T07:55:18;69.77;;;43.63;;
67751;SDS011;54551;51.068;5.826;2023-01-29T07:57:44;72.63;;;43.03;;
67751;SDS011;54551;51.068;5.826;2023-01-29T08:00:11;72.83;;;44.00;;
67751;SDS011;54551;51.068;5.826;2023-01-29T08:02:39;68.83;;;42.67;;
67751;SDS011;54551;51.068;5.826;2023-01-29T08:05:05;66.80;;;42.83;;
67751;SDS011;54551;51.068;5.826;2023-01-29T08:07:31;69.63;;;41.87;;
67751;SDS011;54551;51.068;5.826;2023-01-29T08:09:57;69.83;;;42.93;;
67751;SDS011;54551;51.068;5.826;2023-01-29T08:12:23;66.07;;;41.67;;
67751;SDS011;54551;51.068;5.826;2023-01-29T08:14:49;71.27;;;42.93;;
67751;SDS011;54551;51.068;5.826;2023-01-29T08:17:15;72.10;;;43.67;;
67751;SDS011;54551;51.068;5.826;2023-01-29T08:19:41;67.43;;;42.17;;
67751;SDS011;54551;51.068;5.826;2023-01-29T08:22:06;65.83;;;41.17;;
67751;SDS011;54551;51.068;5.826;2023-01-29T08:24:32;69.57;;;43.10;;
67751;SDS011;54551;51.068;5.826;2023-01-29T08:26:58;70.30;;;44.63;;
67751;SDS011;54551;51.068;5.826;2023-01-29T08:29:24;70.10;;;43.10;;
67751;SDS011;54551;51.068;5.826;2023-01-29T08:31:50;69.30;;;42.00;;
67751;SDS011;54551;51.068;5.826;2023-01-29T08:34:16;63.63;;;41.03;;
67751;SDS011;54551;51.068;5.826;2023-01-29T08:36:42;67.63;;;42.20;;
67751;SDS011;54551;51.068;5.826;2023-01-29T08:39:07;71.83;;;43.60;;
67751;SDS011;54551;51.068;5.826;2023-01-29T08:41:33;70.97;;;45.13;;
67751;SDS011;54551;51.068;5.826;2023-01-29T08:43:59;69.63;;;43.53;;
67751;SDS011;54551;51.068;5.826;2023-01-29T08:46:28;72.07;;;43.83;;
67751;SDS011;54551;51.068;5.826;2023-01-29T08:48:54;67.40;;;42.73;;
67751;SDS011;54551;51.068;5.826;2023-01-29T08:51:20;71.33;;;42.57;;
67751;SDS011;54551;51.068;5.826;2023-01-29T08:53:46;66.53;;;40.77;;
67751;SDS011;54551;51.068;5.826;2023-01-29T08:56:12;78.53;;;49.73;;
67751;SDS011;54551;51.068;5.826;2023-01-29T08:58:40;79.07;;;49.73;;
67751;SDS011;54551;51.068;5.826;2023-01-29T09:01:07;76.27;;;49.30;;
67751;SDS011;54551;51.068;5.826;2023-01-29T09:03:34;67.23;;;43.33;;
67751;SDS011;54551;51.068;5.826;2023-01-29T09:06:00;67.50;;;44.97;;
67751;SDS011;54551;51.068;5.826;2023-01-29T09:08:27;70.97;;;44.60;;
67751;SDS011;54551;51.068;5.826;2023-01-29T09:10:53;71.10;;;45.50;;
67751;SDS011;54551;51.068;5.826;2023-01-29T09:13:18;68.40;;;43.87;;
67751;SDS011;54551;51.068;5.826;2023-01-29T09:15:44;70.00;;;44.83;;
67751;SDS011;54551;51.068;5.826;2023-01-29T09:18:10;70.43;;;45.13;;
67751;SDS011;54551;51.068;5.826;2023-01-29T09:20:36;71.23;;;45.77;;
67751;SDS011;54551;51.068;5.826;2023-01-29T09:23:03;99.47;;;61.27;;
67751;SDS011;54551;51.068;5.826;2023-01-29T09:25:30;102.87;;;68.00;;
67751;SDS011;54551;51.068;5.826;2023-01-29T09:27:56;62.23;;;42.10;;
67751;SDS011;54551;51.068;5.826;2023-01-29T09:30:22;77.63;;;49.00;;
67751;SDS011;54551;51.068;5.826;2023-01-29T09:32:48;76.90;;;48.57;;
67751;SDS011;54551;51.068;5.826;2023-01-29T09:35:14;79.87;;;51.77;;
67751;SDS011;54551;51.068;5.826;2023-01-29T09:37:39;82.17;;;53.27;;
67751;SDS011;54551;51.068;5.826;2023-01-29T09:40:06;120.37;;;76.57;;
67751;SDS011;54551;51.068;5.826;2023-01-29T09:42:41;64.83;;;44.83;;
67751;SDS011;54551;51.068;5.826;2023-01-29T09:45:14;69.57;;;46.17;;
67751;SDS011;54551;51.068;5.826;2023-01-29T09:47:45;64.17;;;41.40;;
67751;SDS011;54551;51.068;5.826;2023-01-29T09:50:19;68.77;;;45.70;;
67751;SDS011;54551;51.068;5.826;2023-01-29T09:55:31;66.37;;;42.20;;
67751;SDS011;54551;51.068;5.826;2023-01-29T09:58:04;59.43;;;39.97;;
67751;SDS011;54551;51.068;5.826;2023-01-29T10:00:53;60.40;;;39.80;;
67751;SDS011;54551;51.068;5.826;2023-01-29T10:03:37;59.20;;;39.87;;
67751;SDS011;54551;51.068;5.826;2023-01-29T10:06:32;65.40;;;41.43;;
67751;SDS011;54551;51.068;5.826;2023-01-29T10:14:36;58.17;;;39.10;;
67751;SDS011;54551;51.068;5.826;2023-01-29T10:25:50;56.90;;;38.33;;
67751;SDS011;54551;51.068;5.826;2023-01-29T10:28:20;54.67;;;36.40;;
67751;SDS011;54551;51.068;5.826;2023-01-29T10:30:55;56.83;;;38.73;;
67751;SDS011;54551;51.068;5.826;2023-01-29T10:33:32;56.77;;;37.77;;
67751;SDS011;54551;51.068;5.826;2023-01-29T10:36:04;56.70;;;37.03;;
67751;SDS011;54551;51.068;5.826;2023-01-29T10:38:44;59.00;;;39.60;;
67751;SDS011;54551;51.068;5.826;2023-01-29T10:58:47;57.27;;;39.03;;
67751;SDS011;54551;51.068;5.826;2023-01-29T11:01:22;58.73;;;39.00;;
67751;SDS011;54551;51.068;5.826;2023-01-29T11:03:58;62.27;;;40.07;;
67751;SDS011;54551;51.068;5.826;2023-01-29T11:06:27;56.70;;;37.07;;
67751;SDS011;54551;51.068;5.826;2023-01-29T11:11:42;55.80;;;37.93;;
67751;SDS011;54551;51.068;5.826;2023-01-29T11:14:11;57.87;;;38.00;;
67751;SDS011;54551;51.068;5.826;2023-01-29T11:16:46;61.70;;;39.07;;
67751;SDS011;54551;51.068;5.826;2023-01-29T11:19:13;57.53;;;38.30;;
67751;SDS011;54551;51.068;5.826;2023-01-29T11:21:49;55.07;;;36.43;;
67751;SDS011;54551;51.068;5.826;2023-01-29T11:24:15;60.33;;;38.93;;
67751;SDS011;54551;51.068;5.826;2023-01-29T11:26:42;64.60;;;41.27;;
67751;SDS011;54551;51.068;5.826;2023-01-29T11:31:58;58.73;;;37.97;;
67751;SDS011;54551;51.068;5.826;2023-01-29T11:34:26;53.97;;;35.43;;
67751;SDS011;54551;51.068;5.826;2023-01-29T11:36:57;58.33;;;39.93;;
67751;SDS011;54551;51.068;5.826;2023-01-29T11:39:29;58.40;;;39.13;;
67751;SDS011;54551;51.068;5.826;2023-01-29T11:42:00;55.53;;;36.77;;
67751;SDS011;54551;51.068;5.826;2023-01-29T11:44:33;56.53;;;37.07;;
67751;SDS011;54551;51.068;5.826;2023-01-29T11:50:02;55.40;;;37.37;;
67751;SDS011;54551;51.068;5.826;2023-01-29T11:52:37;50.60;;;35.77;;
67751;SDS011;54551;51.068;5.826;2023-01-29T11:55:16;53.07;;;36.80;;
67751;SDS011;54551;51.068;5.826;2023-01-29T11:57:43;58.23;;;39.13;;
67751;SDS011;54551;51.068;5.826;2023-01-29T12:00:18;51.03;;;35.07;;
67751;SDS011;54551;51.068;5.826;2023-01-29T12:03:23;57.40;;;38.33;;
67751;SDS011;54551;51.068;5.826;2023-01-29T12:06:04;54.13;;;36.87;;
67751;SDS011;54551;51.068;5.826;2023-01-29T12:08:37;73.70;;;44.97;;
67751;SDS011;54551;51.068;5.826;2023-01-29T12:11:46;53.87;;;36.63;;
67751;SDS011;54551;51.068;5.826;2023-01-29T12:13:53;56.80;;;37.33;;
67751;SDS011;54551;51.068;5.826;2023-01-29T12:16:28;53.37;;;36.83;;
67751;SDS011;54551;51.068;5.826;2023-01-29T12:21:51;55.63;;;37.57;;
67751;SDS011;54551;51.068;5.826;2023-01-29T12:26:57;54.30;;;38.03;;
67751;SDS011;54551;51.068;5.826;2023-01-29T12:35:00;56.00;;;37.53;;
67751;SDS011;54551;51.068;5.826;2023-01-29T12:40:12;54.43;;;36.87;;
67751;SDS011;54551;51.068;5.826;2023-01-29T12:42:40;53.10;;;37.20;;
67751;SDS011;54551;51.068;5.826;2023-01-29T12:45:14;53.90;;;36.73;;
67751;SDS011;54551;51.068;5.826;2023-01-29T12:47:53;52.83;;;36.07;;
67751;SDS011;54551;51.068;5.826;2023-01-29T12:50:25;56.80;;;37.47;;
67751;SDS011;54551;51.068;5.826;2023-01-29T12:55:47;53.17;;;34.00;;
67751;SDS011;54551;51.068;5.826;2023-01-29T12:58:36;54.53;;;37.87;;
67751;SDS011;54551;51.068;5.826;2023-01-29T13:06:19;54.83;;;36.00;;
67751;SDS011;54551;51.068;5.826;2023-01-29T13:08:52;49.07;;;33.70;;
67751;SDS011;54551;51.068;5.826;2023-01-29T13:14:00;52.77;;;35.13;;
67751;SDS011;54551;51.068;5.826;2023-01-29T13:16:41;50.77;;;34.10;;
67751;SDS011;54551;51.068;5.826;2023-01-29T13:19:33;46.73;;;33.17;;
67751;SDS011;54551;51.068;5.826;2023-01-29T13:22:05;47.77;;;32.93;;
67751;SDS011;54551;51.068;5.826;2023-01-29T13:24:41;49.50;;;33.93;;
67751;SDS011;54551;51.068;5.826;2023-01-29T13:27:12;45.50;;;32.30;;
67751;SDS011;54551;51.068;5.826;2023-01-29T13:29:51;47.90;;;33.63;;
67751;SDS011;54551;51.068;5.826;2023-01-29T13:32:19;47.70;;;31.40;;
67751;SDS011;54551;51.068;5.826;2023-01-29T13:34:50;47.20;;;32.37;;
67751;SDS011;54551;51.068;5.826;2023-01-29T13:39:54;48.00;;;32.17;;
67751;SDS011;54551;51.068;5.826;2023-01-29T13:42:23;43.40;;;30.63;;
67751;SDS011;54551;51.068;5.826;2023-01-29T13:44:53;41.87;;;28.30;;
67751;SDS011;54551;51.068;5.826;2023-01-29T13:47:30;42.90;;;29.13;;
67751;SDS011;54551;51.068;5.826;2023-01-29T13:50:00;41.47;;;29.83;;
67751;SDS011;54551;51.068;5.826;2023-01-29T14:05:39;41.60;;;28.07;;
67751;SDS011;54551;51.068;5.826;2023-01-29T14:08:36;40.93;;;28.83;;
67751;SDS011;54551;51.068;5.826;2023-01-29T14:13:40;38.60;;;27.10;;
67751;SDS011;54551;51.068;5.826;2023-01-29T14:18:47;38.40;;;26.00;;
67751;SDS011;54551;51.068;5.826;2023-01-29T14:21:29;39.23;;;26.50;;
67751;SDS011;54551;51.068;5.826;2023-01-29T14:24:10;39.87;;;26.43;;
67751;SDS011;54551;51.068;5.826;2023-01-29T14:26:42;34.70;;;22.87;;
67751;SDS011;54551;51.068;5.826;2023-01-29T14:34:27;39.00;;;25.90;;
67751;SDS011;54551;51.068;5.826;2023-01-29T14:36:56;39.27;;;26.17;;
67751;SDS011;54551;51.068;5.826;2023-01-29T14:39:28;38.63;;;26.40;;
67751;SDS011;54551;51.068;5.826;2023-01-29T14:41:58;38.87;;;26.40;;
67751;SDS011;54551;51.068;5.826;2023-01-29T14:49:59;35.93;;;25.57;;
67751;SDS011;54551;51.068;5.826;2023-01-29T14:52:29;35.63;;;23.53;;
67751;SDS011;54551;51.068;5.826;2023-01-29T14:55:02;36.47;;;24.80;;
67751;SDS011;54551;51.068;5.826;2023-01-29T14:57:32;35.57;;;25.27;;
67751;SDS011;54551;51.068;5.826;2023-01-29T15:00:02;38.83;;;25.83;;
67751;SDS011;54551;51.068;5.826;2023-01-29T15:05:06;33.07;;;24.83;;
67751;SDS011;54551;51.068;5.826;2023-01-29T15:07:38;36.73;;;25.47;;
67751;SDS011;54551;51.068;5.826;2023-01-29T15:10:37;37.50;;;25.50;;
67751;SDS011;54551;51.068;5.826;2023-01-29T15:15:53;93.57;;;61.90;;
67751;SDS011;54551;51.068;5.826;2023-01-29T15:18:36;62.00;;;45.53;;
67751;SDS011;54551;51.068;5.826;2023-01-29T15:21:16;45.73;;;36.03;;
67751;SDS011;54551;51.068;5.826;2023-01-29T15:23:43;40.20;;;29.87;;
67751;SDS011;54551;51.068;5.826;2023-01-29T15:26:16;83.80;;;55.50;;
67751;SDS011;54551;51.068;5.826;2023-01-29T15:28:53;102.83;;;68.40;;
67751;SDS011;54551;51.068;5.826;2023-01-29T15:31:20;37.77;;;26.77;;
67751;SDS011;54551;51.068;5.826;2023-01-29T15:33:47;32.90;;;24.87;;
67751;SDS011;54551;51.068;5.826;2023-01-29T15:36:24;33.80;;;24.97;;
67751;SDS011;54551;51.068;5.826;2023-01-29T15:41:37;133.40;;;84.37;;
67751;SDS011;54551;51.068;5.826;2023-01-29T15:44:07;64.37;;;44.83;;
67751;SDS011;54551;51.068;5.826;2023-01-29T15:46:41;77.00;;;54.30;;
67751;SDS011;54551;51.068;5.826;2023-01-29T15:49:10;51.67;;;39.17;;
67751;SDS011;54551;51.068;5.826;2023-01-29T15:51:46;38.23;;;27.77;;
67751;SDS011;54551;51.068;5.826;2023-01-29T15:54:14;37.43;;;27.30;;
67751;SDS011;54551;51.068;5.826;2023-01-29T15:56:42;37.20;;;25.40;;
67751;SDS011;54551;51.068;5.826;2023-01-29T15:59:16;40.47;;;28.27;;
67751;SDS011;54551;51.068;5.826;2023-01-29T16:01:47;48.57;;;33.47;;
67751;SDS011;54551;51.068;5.826;2023-01-29T16:04:15;43.53;;;30.77;;
67751;SDS011;54551;51.068;5.826;2023-01-29T16:06:44;42.73;;;30.97;;
67751;SDS011;54551;51.068;5.826;2023-01-29T16:09:15;45.90;;;33.03;;
67751;SDS011;54551;51.068;5.826;2023-01-29T16:11:44;46.30;;;30.23;;
67751;SDS011;54551;51.068;5.826;2023-01-29T16:14:14;37.47;;;26.70;;
67751;SDS011;54551;51.068;5.826;2023-01-29T16:16:44;38.83;;;27.80;;
67751;SDS011;54551;51.068;5.826;2023-01-29T16:19:33;39.47;;;26.90;;
67751;SDS011;54551;51.068;5.826;2023-01-29T16:21:59;37.13;;;26.57;;
67751;SDS011;54551;51.068;5.826;2023-01-29T16:24:27;40.10;;;26.93;;
67751;SDS011;54551;51.068;5.826;2023-01-29T16:26:59;36.70;;;27.33;;
67751;SDS011;54551;51.068;5.826;2023-01-29T16:29:32;37.50;;;27.73;;
67751;SDS011;54551;51.068;5.826;2023-01-29T16:31:59;42.00;;;28.40;;
67751;SDS011;54551;51.068;5.826;2023-01-29T16:36:56;35.20;;;25.17;;
67751;SDS011;54551;51.068;5.826;2023-01-29T16:39:26;41.57;;;28.37;;
67751;SDS011;54551;51.068;5.826;2023-01-29T16:49:48;37.53;;;27.40;;
67751;SDS011;54551;51.068;5.826;2023-01-29T16:52:26;39.30;;;27.50;;
67751;SDS011;54551;51.068;5.826;2023-01-29T16:55:13;42.07;;;28.27;;
67751;SDS011;54551;51.068;5.826;2023-01-29T16:57:43;39.10;;;29.83;;
67751;SDS011;54551;51.068;5.826;2023-01-29T17:02:55;34.27;;;25.17;;
67751;SDS011;54551;51.068;5.826;2023-01-29T17:05:32;37.77;;;27.40;;
67751;SDS011;54551;51.068;5.826;2023-01-29T17:08:00;35.47;;;26.03;;
67751;SDS011;54551;51.068;5.826;2023-01-29T17:10:27;36.63;;;25.57;;
67751;SDS011;54551;51.068;5.826;2023-01-29T17:13:07;37.10;;;27.03;;
67751;SDS011;54551;51.068;5.826;2023-01-29T17:18:14;36.40;;;26.57;;
67751;SDS011;54551;51.068;5.826;2023-01-29T17:20:45;36.60;;;26.97;;
67751;SDS011;54551;51.068;5.826;2023-01-29T17:23:12;38.43;;;27.63;;
67751;SDS011;54551;51.068;5.826;2023-01-29T17:25:38;33.80;;;25.43;;
67751;SDS011;54551;51.068;5.826;2023-01-29T17:28:05;35.77;;;26.57;;
67751;SDS011;54551;51.068;5.826;2023-01-29T17:30:32;42.43;;;32.17;;
67751;SDS011;54551;51.068;5.826;2023-01-29T17:33:08;38.47;;;27.73;;
67751;SDS011;54551;51.068;5.826;2023-01-29T17:35:37;38.90;;;27.97;;
67751;SDS011;54551;51.068;5.826;2023-01-29T17:38:02;35.33;;;25.27;;
67751;SDS011;54551;51.068;5.826;2023-01-29T17:40:32;32.73;;;24.30;;
67751;SDS011;54551;51.068;5.826;2023-01-29T17:43:02;31.13;;;24.13;;
67751;SDS011;54551;51.068;5.826;2023-01-29T17:45:28;33.83;;;24.80;;
67751;SDS011;54551;51.068;5.826;2023-01-29T17:47:54;33.93;;;26.67;;